Latest Weather Observations for Robe Airport

IDS60801

Issued at 12:01 pm CST Monday 31 August 2015 (issued every 30 minutes, with the page automatically refreshed every 10 minutes)

About weather observations | Map of weather stations | Latest weather observations for SA | Other Formats
Station Details ID: 026105 Name: ROBE AIRFIELD Lat: -37.18 Lon: 139.81 Height: 3.0 m
Data from the previous 72 hours. | See also: Recent months at Robe Airport
Date/Time
CST
Temp
°C
App
Temp
°C
Dew
Point
Rel
Hum
%
Delta-T
°C
Wind Press
QNH
hPa
Press
MSL
hPa
Rain
since 9 am
mm
Dir
 
Spd
km/h
Gust
km/h
Spd
kts
Gust
kts
31/12:00pm 11.9 9.7 6.2 68 2.7 NE 7 13 4 7 1021.4 1021.4 0.0
31/11:30am 12.3 9.9 6.8 69 2.6 NE 9 15 5 8 1021.8 1021.8 0.0
31/11:00am 11.8 8.6 6.7 71 2.4 NE 13 19 7 10 1022.0 1022.0 0.0
31/10:30am 11.2 7.5 6.3 72 2.3 NE 15 19 8 10 1022.2 1022.2 0.0
31/10:00am 10.7 7.1 6.6 76 1.9 NE 15 19 8 10 1022.4 1022.4 0.0
31/09:30am 9.6 5.9 6.1 79 1.6 NE 15 19 8 10 1022.7 1022.7 0.0
31/09:00am 8.9 6.1 6.9 87 0.9 NE 11 17 6 9 1022.8 1022.8 0.0
31/08:30am 7.9 5.2 7.3 96 0.3 NE 11 13 6 7 1022.9 1022.9 0.0
31/08:00am 6.6 4.6 6.3 98 0.1 E 6 9 3 5 1022.8 1022.8 0.0
31/07:30am 5.6 3.4 5.3 98 0.1 ENE 6 7 3 4 1022.6 1022.6 0.0
31/07:00am 5.4 3.5 5.1 98 0.1 E 4 7 2 4 1022.4 1022.4 0.0
31/06:30am 5.4 2.6 5.3 99 0.0 E 9 13 5 7 1021.9 1021.9 0.0
31/06:00am 4.7 2.7 4.4 98 0.1 E 4 6 2 3 1022.2 1022.2 0.0
31/05:30am 3.8 1.3 3.5 98 0.1 ESE 6 7 3 4 1022.2 1022.2 0.0
31/05:00am 2.6 0.2 2.3 98 0.1 ESE 4 4 2 2 1022.3 1022.3 0.0
31/04:30am 2.1 -0.4 1.7 97 0.2 ESE 4 6 2 3 1022.2 1022.2 0.0
31/04:00am 2.6 0.2 2.3 98 0.1 ESE 4 6 2 3 1022.1 1022.1 0.0
31/03:30am 2.9 0.6 2.5 97 0.2 ESE 4 4 2 2 1022.2 1022.2 0.0
31/03:00am 2.5 0.1 1.9 96 0.2 ESE 4 4 2 2 1022.4 1022.4 0.0
31/02:30am 3.2 0.9 2.6 96 0.2 ESE 4 4 2 2 1022.6 1022.6 0.0
31/02:00am 3.7 1.1 3.1 96 0.2 ESE 6 6 3 3 1023.0 1023.0 0.0
31/01:30am 3.9 1.7 3.3 96 0.2 ESE 4 6 2 3 1023.3 1023.3 0.0
31/01:00am 3.6 0.9 2.7 94 0.4 ESE 6 6 3 3 1023.4 1023.4 0.0
31/12:30am 4.6 2.5 3.7 94 0.4 ESE 4 6 2 3 1023.4 1023.4 0.0
31/12:00am 5.3 2.7 4.4 94 0.4 ESE 7 9 4 5 1023.5 1023.5 0.0
 
Date/Time
CST
Temp
°C
App
Temp
°C
Dew
Point
Rel
Hum
%
Delta-T
°C
Wind Press
QNH
hPa
Press
MSL
hPa
Rain
since 9 am
mm
Dir
 
Spd
km/h
Gust
km/h
Spd
kts
Gust
kts
30/11:30pm 5.5 3.0 4.6 94 0.4 SE 7 9 4 5 1023.7 1023.7 0.0
30/11:00pm 6.3 4.1 5.3 93 0.4 ESE 6 7 3 4 1024.2 1024.2 0.0
30/10:30pm 6.5 3.7 5.3 92 0.5 SE 9 11 5 6 1024.4 1024.4 0.0
30/10:00pm 7.1 4.8 5.9 92 0.5 SE 7 9 4 5 1024.7 1024.7 0.0
30/09:30pm 7.5 5.5 6.3 92 0.5 ESE 6 9 3 5 1024.8 1024.8 0.0
30/09:00pm 7.8 5.6 6.3 90 0.7 SE 7 9 4 5 1024.9 1024.9 0.0
30/08:30pm 8.9 7.2 7.4 90 0.7 SE 6 7 3 4 1024.7 1024.7 0.0
30/08:00pm 9.0 8.4 7.5 90 0.7 CALM 0 0 0 0 1024.7 1024.7 0.0
30/07:30pm 8.9 8.3 7.2 89 0.8 CALM 0 0 0 0 1024.5 1024.5 0.0
30/07:00pm 9.7 9.1 7.5 86 1.0 CALM 0 0 0 0 1024.5 1024.5 0.0
30/06:30pm 10.4 9.5 7.6 83 1.3 S 2 2 1 1 1024.5 1024.5 0.0
30/06:00pm 10.7 8.9 7.8 82 1.4 S 7 9 4 5 1024.3 1024.3 0.0
30/05:30pm 11.0 9.2 8.1 82 1.4 S 7 9 4 5 1024.2 1024.2 0.0
30/05:00pm 11.3 9.2 8.2 81 1.5 S 9 13 5 7 1024.2 1024.2 0.0
30/04:30pm 11.5 9.0 8.4 81 1.5 S 11 13 6 7 1024.3 1024.3 0.0
30/04:00pm 11.4 8.9 8.3 81 1.5 S 11 15 6 8 1024.3 1024.3 0.0
30/03:30pm 11.1 10.0 8.5 84 1.3 WSW 4 7 2 4 1024.7 1024.7 0.0
30/03:00pm 11.4 8.4 7.9 79 1.7 SW 13 17 7 9 1024.8 1024.8 0.0
30/02:30pm 12.6 10.9 7.5 71 2.5 NNW 6 9 3 5 1025.0 1025.0 0.0
30/02:00pm 12.4 10.9 6.7 68 2.7 N 4 7 2 4 1025.0 1025.0 0.0
30/01:30pm 12.5 10.7 7.0 69 2.6 ENE 6 9 3 5 1025.3 1025.3 0.0
30/01:00pm 12.2 10.2 6.9 70 2.5 ENE 7 11 4 6 1025.7 1025.7 0.0
30/12:30pm 12.5 11.1 7.2 70 2.5 SE 4 9 2 5 1026.1 1026.1 0.0
30/12:00pm 12.0 9.1 6.7 70 2.5 SE 11 17 6 9 1026.5 1026.5 0.0
30/11:30am 12.0 8.8 6.9 71 2.4 E 13 19 7 10 1026.9 1026.9 0.0
30/11:00am 12.5 10.8 8.2 75 2.1 SSE 7 13 4 7 1027.2 1027.2 0.0
30/10:30am 11.4 8.2 6.9 74 2.1 SE 13 20 7 11 1027.5 1027.5 0.0
30/10:00am 11.8 8.2 6.9 72 2.3 SE 15 20 8 11 1027.7 1027.7 0.0
30/09:30am 11.4 8.3 7.1 75 2.0 E 13 19 7 10 1027.9 1027.9 0.0
30/09:00am 10.1 8.0 6.8 80 1.5 ENE 7 9 4 5 1028.1 1028.1 0.0
30/08:30am 8.6 7.7 7.8 95 0.4 SSE 2 4 1 2 1028.3 1028.3 0.0
30/08:00am 6.3 5.4 6.0 98 0.1 CALM 0 0 0 0 1028.4 1028.4 0.0
30/07:30am 2.6 1.0 2.2 97 0.2 CALM 0 0 0 0 1028.1 1028.1 0.0
30/07:00am 0.7 -1.3 0.1 96 0.2 CALM 0 0 0 0 1027.9 1027.9 0.0
30/06:30am 0.3 -2.5 -0.4 95 0.2 SSE 4 6 2 3 1027.6 1027.6 0.0
30/06:00am 0.9 -1.1 0.2 95 0.3 CALM 0 0 0 0 1027.5 1027.5 0.0
30/05:30am 1.3 -0.6 0.6 95 0.3 CALM 0 0 0 0 1027.3 1027.3 0.0
30/05:00am 2.0 0.2 1.1 94 0.3 CALM 0 0 0 0 1027.3 1027.3 0.0
30/04:30am 3.5 1.9 2.6 94 0.4 CALM 0 2 0 1 1027.4 1027.4 0.0
30/04:00am 4.6 2.8 3.7 94 0.4 SSE 2 6 1 3 1027.3 1027.3 0.0
30/03:30am 3.7 1.8 2.7 93 0.4 SSE 2 2 1 1 1027.6 1027.6 0.0
30/03:00am 3.8 1.5 2.6 92 0.5 SSE 4 6 2 3 1027.8 1027.8 0.0
30/02:30am 3.3 0.5 1.8 90 0.6 S 6 9 3 5 1028.2 1028.2 0.0
30/02:00am 4.4 1.7 2.6 88 0.7 SE 6 9 3 5 1028.5 1028.5 0.0
30/01:30am 5.3 3.0 3.0 85 0.9 ESE 4 6 2 3 1028.7 1028.7 0.0
30/01:00am 5.9 3.6 2.5 79 1.4 ESE 4 6 2 3 1029.0 1029.0 0.0
30/12:30am 7.4 4.9 3.5 76 1.6 ESE 6 9 3 5 1029.2 1029.2 0.0
30/12:00am 8.0 5.7 4.6 79 1.5 SE 6 6 3 3 1029.3 1029.3 0.0
 
Date/Time
CST
Temp
°C
App
Temp
°C
Dew
Point
Rel
Hum
%
Delta-T
°C
Wind Press
QNH
hPa
Press
MSL
hPa
Rain
since 9 am
mm
Dir
 
Spd
km/h
Gust
km/h
Spd
kts
Gust
kts
29/11:30pm 7.5 5.6 4.8 83 1.2 SE 4 6 2 3 1029.5 1029.5 0.0
29/11:00pm 6.8 4.4 4.1 83 1.2 SE 6 6 3 3 1029.6 1029.6 0.0
29/10:30pm 6.3 3.7 3.3 81 1.2 SE 6 11 3 6 1029.7 1029.7 0.0
29/10:00pm 5.8 3.1 2.8 81 1.2 SE 6 7 3 4 1029.8 1029.8 0.0
29/09:30pm 6.2 3.0 3.2 81 1.2 SE 9 13 5 7 1029.7 1029.7 0.0
29/09:00pm 6.0 3.0 2.1 76 1.6 SE 7 11 4 6 1029.8 1029.8 0.0
29/08:30pm 6.7 3.8 2.6 75 1.7 ESE 7 11 4 6 1029.6 1029.6 0.0
29/08:00pm 8.6 4.8 3.8 72 2.1 SE 13 17 7 9 1029.5 1029.5 0.0
29/07:30pm 8.1 5.1 4.1 76 1.7 SE 9 15 5 8 1029.3 1029.3 0.0
29/07:00pm 8.9 5.2 4.3 73 2.0 SE 13 20 7 11 1029.2 1029.2 0.0
29/06:30pm 9.2 5.5 4.2 71 2.2 SE 13 20 7 11 1029.0 1029.0 0.0
29/06:00pm 9.2 5.1 4.2 71 2.2 SE 15 26 8 14 1028.8 1028.8 0.0
29/05:30pm 9.5 5.0 4.1 69 2.4 SE 17 26 9 14 1028.6 1028.6 0.0
29/05:00pm 10.3 4.2 4.7 68 2.5 SSE 26 35 14 19 1028.3 1028.3 0.0
29/04:30pm 10.8 5.0 4.3 64 2.9 SSE 24 35 13 19 1028.4 1028.4 0.0
29/04:00pm 11.1 5.5 3.2 58 3.5 SE 22 30 12 16 1028.3 1028.3 0.0
29/03:30pm 11.4 5.7 2.9 56 3.7 SSE 22 33 12 18 1028.5 1028.5 0.0
29/03:00pm 12.4 7.2 3.6 55 3.9 SSE 20 32 11 17 1028.6 1028.6 0.0
29/02:30pm 11.9 6.2 2.9 54 3.9 SSE 22 32 12 17 1028.7 1028.7 0.0
29/02:00pm 12.1 6.8 2.8 53 4.1 SSE 20 32 11 17 1028.7 1028.7 0.0
29/01:30pm 11.9 5.9 3.4 56 3.7 SSE 24 33 13 18 1028.9 1028.9 0.0
29/01:00pm 12.0 6.7 3.0 54 3.9 SSE 20 32 11 17 1029.3 1029.3 0.0
29/12:30pm 11.6 6.4 2.6 54 3.9 SSE 19 28 10 15 1029.8 1029.8 0.0
29/12:00pm 11.3 6.5 2.6 55 3.7 SSE 17 24 9 13 1030.2 1030.2 0.0
29/11:30am 11.3 6.2 2.9 56 3.6 SE 19 26 10 14 1030.5 1030.5 0.0
29/11:00am 12.0 8.2 4.0 58 3.6 ESE 13 24 7 13 1030.7 1030.7 0.0
29/10:30am 11.1 7.0 2.4 55 3.7 SE 13 20 7 11 1030.8 1030.8 0.0
29/10:00am 10.7 6.2 2.3 56 3.6 E 15 28 8 15 1030.8 1030.8 0.0
29/09:30am 10.3 6.2 2.2 57 3.4 E 13 19 7 10 1030.9 1030.9 0.0
29/09:00am 9.2 4.7 1.9 60 3.0 E 15 20 8 11 1030.8 1030.8 0.8
29/08:30am 8.5 4.9 2.7 67 2.4 E 11 17 6 9 1030.9 1030.9 0.8
29/08:00am 6.9 4.0 2.6 74 1.8 ESE 7 11 4 6 1030.7 1030.7 0.8
29/07:30am 4.2 1.2 0.9 79 1.3 SE 6 6 3 3 1030.3 1030.3 0.8
29/07:00am 3.1 0.0 0.0 80 1.2 ESE 6 9 3 5 1030.1 1030.1 0.8
29/06:30am 2.8 -0.9 -0.3 80 1.1 ESE 9 13 5 7 1029.7 1029.7 0.8
29/06:00am 3.1 0.1 0.7 84 0.9 SE 6 9 3 5 1029.5 1029.5 0.8
29/05:30am 2.5 -0.6 0.2 85 0.8 S 6 9 3 5 1029.3 1029.3 0.8
29/05:00am 3.5 0.9 1.2 85 0.9 ESE 4 7 2 4 1029.3 1029.3 0.8
29/04:30am 3.4 0.5 1.4 87 0.8 SE 6 7 3 4 1029.2 1029.2 0.8
29/04:00am 3.6 0.5 1.6 87 0.8 ESE 7 9 4 5 1029.2 1029.2 0.8
29/03:30am 4.1 0.8 2.3 88 0.7 SE 9 11 5 6 1029.1 1029.1 0.8
29/03:00am 4.1 1.1 2.3 88 0.7 ESE 7 11 4 6 1029.1 1029.1 0.8
29/02:30am 4.5 1.6 2.5 87 0.8 SE 7 9 4 5 1029.4 1029.4 0.8
29/02:00am 5.2 2.1 3.4 88 0.7 SE 9 11 5 6 1029.5 1029.5 0.8
29/01:30am 5.4 2.7 3.7 89 0.7 SE 7 9 4 5 1029.7 1029.7 0.8
29/01:00am 6.5 3.6 4.8 89 0.7 SE 9 15 5 8 1029.7 1029.7 0.8
29/12:30am 6.4 3.6 5.0 91 0.6 SE 9 11 5 6 1029.5 1029.5 0.8
29/12:00am 6.6 3.7 4.9 89 0.7 SE 9 13 5 7 1029.3 1029.3 0.8
 
Date/Time
CST
Temp
°C
App
Temp
°C
Dew
Point
Rel
Hum
%
Delta-T
°C
Wind Press
QNH
hPa
Press
MSL
hPa
Rain
since 9 am
mm
Dir
 
Spd
km/h
Gust
km/h
Spd
kts
Gust
kts
28/11:30pm 6.9 4.1 5.1 88 0.8 SE 9 11 5 6 1029.3 1029.3 0.8
28/11:00pm 8.0 5.3 5.8 86 1.0 SE 9 15 5 8 1029.4 1029.4 0.8
28/10:30pm 8.4 5.9 6.4 87 0.9 SE 9 17 5 9 1029.4 1029.4 0.8
28/10:00pm 8.4 5.4 6.2 86 1.0 ESE 11 19 6 10 1029.5 1029.5 0.8
28/09:30pm 8.3 5.0 6.3 87 0.9 ESE 13 17 7 9 1029.3 1029.3 0.8
28/09:00pm 8.8 4.8 6.6 86 1.0 SE 17 26 9 14 1029.2 1029.2 0.8
28/08:30pm 9.2 4.4 7.3 88 0.9 SE 22 30 12 16 1029.0 1029.0 0.8
28/08:00pm 9.2 5.0 7.5 89 0.8 SE 19 28 10 15 1028.7 1028.7 0.8
28/07:30pm 9.5 5.8 7.8 89 0.8 SE 17 24 9 13 1028.3 1028.3 0.8
28/07:00pm 10.1 7.7 8.7 91 0.7 SSE 11 17 6 9 1027.8 1027.8 0.8
28/06:30pm 9.6 7.4 8.0 90 0.8 S 9 13 5 7 1027.4 1027.4 0.8
28/06:00pm 10.1 7.9 7.9 86 1.1 SSW 9 13 5 7 1027.3 1027.3 0.8
28/05:30pm 10.9 8.9 8.5 85 1.2 SSW 9 13 5 7 1027.2 1027.2 0.8
28/05:00pm 11.7 9.4 8.9 83 1.4 SW 11 17 6 9 1027.1 1027.1 0.8
28/04:30pm 12.1 8.9 8.6 79 1.7 SSW 15 20 8 11 1027.2 1027.2 0.8
28/04:00pm 12.3 8.8 8.8 79 1.7 SSW 17 26 9 14 1027.2 1027.2 0.6
28/03:30pm 12.5 9.4 9.0 79 1.7 SSW 15 22 8 12 1027.3 1027.3 0.6
28/03:00pm 12.4 10.3 9.8 84 1.3 SSW 11 17 6 9 1027.5 1027.5 0.6
28/02:30pm 11.0 8.2 10.1 94 0.5 S 15 22 8 12 1027.8 1027.8 0.6
28/02:00pm 12.3 9.9 9.9 85 1.2 SW 13 20 7 11 1028.0 1028.0 0.0
28/01:30pm 13.1 10.5 9.2 77 2.0 SSW 13 19 7 10 1028.1 1028.1 0.0
28/01:00pm 12.7 9.0 9.3 80 1.7 SSW 19 26 10 14 1028.3 1028.3 0.0
28/12:30pm 13.2 9.5 7.9 70 2.6 SSW 17 24 9 13 1028.7 1028.7 0.0

Other Formats:

Comma delimited format used in spreadsheet applications
http://www.bom.gov.au/fwo/IDS60801/IDS60801.95816.axf

JavaScript Object Notation format (JSON) in row-major order
http://www.bom.gov.au/fwo/IDS60801/IDS60801.95816.json